sensor_id;sensor_type;location;lat;lon;timestamp;pressure;altitude;pressure_sealevel;temperature;humidity
69257;BME280;56376;53.356;-1.748;2023-02-11T00:00:19;101086.81;;;8.27;100.00
69257;BME280;56376;53.356;-1.748;2023-02-11T00:02:44;101085.94;;;8.23;100.00
69257;BME280;56376;53.356;-1.748;2023-02-11T00:05:10;101088.56;;;8.22;100.00
69257;BME280;56376;53.356;-1.748;2023-02-11T00:07:35;101082.50;;;8.20;100.00
69257;BME280;56376;53.356;-1.748;2023-02-11T00:10:01;101092.91;;;8.20;100.00
69257;BME280;56376;53.356;-1.748;2023-02-11T00:12:32;101089.41;;;8.22;100.00
69257;BME280;56376;53.356;-1.748;2023-02-11T00:14:57;101098.97;;;8.20;100.00
69257;BME280;56376;53.356;-1.748;2023-02-11T00:17:23;101088.56;;;8.22;100.00
69257;BME280;56376;53.356;-1.748;2023-02-11T00:19:49;101101.56;;;8.25;100.00
69257;BME280;56376;53.356;-1.748;2023-02-11T00:22:15;101092.00;;;8.26;100.00
69257;BME280;56376;53.356;-1.748;2023-02-11T00:24:40;101083.34;;;8.20;100.00
69257;BME280;56376;53.356;-1.748;2023-02-11T00:27:06;101092.91;;;8.20;100.00
69257;BME280;56376;53.356;-1.748;2023-02-11T00:29:31;101103.28;;;8.26;100.00
69257;BME280;56376;53.356;-1.748;2023-02-11T00:31:56;101084.22;;;8.24;100.00
69257;BME280;56376;53.356;-1.748;2023-02-11T00:34:23;101093.75;;;8.22;100.00
69257;BME280;56376;53.356;-1.748;2023-02-11T00:36:49;101092.88;;;8.18;100.00
69257;BME280;56376;53.356;-1.748;2023-02-11T00:39:14;101103.31;;;8.17;100.00
69257;BME280;56376;53.356;-1.748;2023-02-11T00:41:40;101101.56;;;8.17;100.00
69257;BME280;56376;53.356;-1.748;2023-02-11T00:44:06;101105.91;;;8.17;100.00
69257;BME280;56376;53.356;-1.748;2023-02-11T00:46:31;101095.50;;;8.15;100.00
69257;BME280;56376;53.356;-1.748;2023-02-11T00:48:57;101106.78;;;8.17;100.00
69257;BME280;56376;53.356;-1.748;2023-02-11T00:51:23;101109.38;;;8.20;100.00
69257;BME280;56376;53.356;-1.748;2023-02-11T00:53:49;101102.44;;;8.22;100.00
69257;BME280;56376;53.356;-1.748;2023-02-11T00:56:14;101098.94;;;8.23;100.00
69257;BME280;56376;53.356;-1.748;2023-02-11T00:58:40;101092.00;;;8.21;100.00
69257;BME280;56376;53.356;-1.748;2023-02-11T01:01:05;101100.72;;;8.20;100.00
69257;BME280;56376;53.356;-1.748;2023-02-11T01:03:32;101101.56;;;8.17;100.00
69257;BME280;56376;53.356;-1.748;2023-02-11T01:05:57;101098.97;;;8.20;100.00
69257;BME280;56376;53.356;-1.748;2023-02-11T01:08:23;101104.16;;;8.20;100.00
69257;BME280;56376;53.356;-1.748;2023-02-11T01:10:57;101110.25;;;8.19;100.00
69257;BME280;56376;53.356;-1.748;2023-02-11T01:13:23;101101.56;;;8.11;100.00
69257;BME280;56376;53.356;-1.748;2023-02-11T01:15:48;101090.31;;;8.12;100.00
69257;BME280;56376;53.356;-1.748;2023-02-11T01:18:13;101098.97;;;8.08;100.00
69257;BME280;56376;53.356;-1.748;2023-02-11T01:20:39;101101.56;;;8.13;100.00
69257;BME280;56376;53.356;-1.748;2023-02-11T01:23:04;101102.44;;;8.13;100.00
69257;BME280;56376;53.356;-1.748;2023-02-11T01:25:30;101099.84;;;8.07;100.00
69257;BME280;56376;53.356;-1.748;2023-02-11T01:27:55;101100.72;;;8.09;100.00
69257;BME280;56376;53.356;-1.748;2023-02-11T01:30:20;101101.59;;;8.07;100.00
69257;BME280;56376;53.356;-1.748;2023-02-11T01:32:46;101103.34;;;8.01;100.00
69257;BME280;56376;53.356;-1.748;2023-02-11T01:35:11;101099.84;;;7.98;100.00
69257;BME280;56376;53.356;-1.748;2023-02-11T01:37:36;101092.06;;;7.92;100.00
69257;BME280;56376;53.356;-1.748;2023-02-11T01:40:04;101108.53;;;7.95;100.00
69257;BME280;56376;53.356;-1.748;2023-02-11T01:42:31;101105.06;;;7.90;100.00
69257;BME280;56376;53.356;-1.748;2023-02-11T01:44:59;101101.59;;;7.90;100.00
69257;BME280;56376;53.356;-1.748;2023-02-11T01:47:26;101113.72;;;7.88;100.00
69257;BME280;56376;53.356;-1.748;2023-02-11T01:49:55;101116.34;;;7.86;100.00
69257;BME280;56376;53.356;-1.748;2023-02-11T01:52:28;101125.88;;;7.84;100.00
69257;BME280;56376;53.356;-1.748;2023-02-11T01:54:59;101119.78;;;7.80;100.00
69257;BME280;56376;53.356;-1.748;2023-02-11T01:57:48;101122.41;;;7.84;100.00
69257;BME280;56376;53.356;-1.748;2023-02-11T02:00:24;101129.34;;;7.82;100.00
69257;BME280;56376;53.356;-1.748;2023-02-11T02:05:54;101138.88;;;7.83;100.00
69257;BME280;56376;53.356;-1.748;2023-02-11T02:08:43;101135.41;;;7.80;100.00
69257;BME280;56376;53.356;-1.748;2023-02-11T02:11:11;101138.88;;;7.79;100.00
69257;BME280;56376;53.356;-1.748;2023-02-11T02:13:36;101144.09;;;7.83;100.00
69257;BME280;56376;53.356;-1.748;2023-02-11T02:16:05;101128.47;;;7.79;100.00
69257;BME280;56376;53.356;-1.748;2023-02-11T02:18:52;101126.75;;;7.82;100.00
69257;BME280;56376;53.356;-1.748;2023-02-11T02:29:28;101109.41;;;7.74;100.00
69257;BME280;56376;53.356;-1.748;2023-02-11T02:32:22;101124.13;;;7.80;100.00
69257;BME280;56376;53.356;-1.748;2023-02-11T02:40:19;101137.16;;;7.74;100.00
69257;BME280;56376;53.356;-1.748;2023-02-11T02:42:46;101131.94;;;7.72;100.00
69257;BME280;56376;53.356;-1.748;2023-02-11T02:45:12;101132.81;;;7.70;100.00
69257;BME280;56376;53.356;-1.748;2023-02-11T02:47:38;101128.44;;;7.66;100.00
69257;BME280;56376;53.356;-1.748;2023-02-11T02:50:05;101123.25;;;7.67;100.00
69257;BME280;56376;53.356;-1.748;2023-02-11T02:55:28;101106.78;;;7.70;100.00
69257;BME280;56376;53.356;-1.748;2023-02-11T03:01:06;101098.13;;;7.69;100.00
69257;BME280;56376;53.356;-1.748;2023-02-11T03:03:49;101093.78;;;7.62;100.00
69257;BME280;56376;53.356;-1.748;2023-02-11T03:06:32;101101.59;;;7.68;100.00
69257;BME280;56376;53.356;-1.748;2023-02-11T03:09:08;101100.72;;;7.62;100.00
69257;BME280;56376;53.356;-1.748;2023-02-11T03:11:36;101108.50;;;7.60;100.00
69257;BME280;56376;53.356;-1.748;2023-02-11T03:14:04;101109.41;;;7.59;100.00
69257;BME280;56376;53.356;-1.748;2023-02-11T03:16:32;101115.44;;;7.55;100.00
69257;BME280;56376;53.356;-1.748;2023-02-11T03:21:37;101112.00;;;7.51;100.00
69257;BME280;56376;53.356;-1.748;2023-02-11T03:24:11;101112.00;;;7.51;100.00
69257;BME280;56376;53.356;-1.748;2023-02-11T03:27:03;101116.28;;;7.48;100.00
69257;BME280;56376;53.356;-1.748;2023-02-11T03:29:34;101125.84;;;7.52;100.00
69257;BME280;56376;53.356;-1.748;2023-02-11T03:32:07;101112.84;;;7.49;100.00
69257;BME280;56376;53.356;-1.748;2023-02-11T03:34:48;101112.81;;;7.46;100.00
69257;BME280;56376;53.356;-1.748;2023-02-11T03:37:21;101118.91;;;7.49;100.00
69257;BME280;56376;53.356;-1.748;2023-02-11T03:39:54;101127.56;;;7.48;100.00
69257;BME280;56376;53.356;-1.748;2023-02-11T03:42:23;101130.16;;;7.45;100.00
69257;BME280;56376;53.356;-1.748;2023-02-11T03:44:57;101135.38;;;7.44;100.00
69257;BME280;56376;53.356;-1.748;2023-02-11T03:47:26;101133.66;;;7.49;100.00
69257;BME280;56376;53.356;-1.748;2023-02-11T03:49:54;101124.09;;;7.45;100.00
69257;BME280;56376;53.356;-1.748;2023-02-11T03:52:22;101132.75;;;7.45;100.00
69257;BME280;56376;53.356;-1.748;2023-02-11T03:54:56;101124.97;;;7.45;100.00
69257;BME280;56376;53.356;-1.748;2023-02-11T03:57:22;101109.34;;;7.41;100.00
69257;BME280;56376;53.356;-1.748;2023-02-11T03:59:57;101124.09;;;7.45;100.00
69257;BME280;56376;53.356;-1.748;2023-02-11T04:02:30;101119.75;;;7.41;100.00
69257;BME280;56376;53.356;-1.748;2023-02-11T04:04:56;101130.16;;;7.36;100.00
69257;BME280;56376;53.356;-1.748;2023-02-11T04:07:22;101131.88;;;7.37;100.00
69257;BME280;56376;53.356;-1.748;2023-02-11T04:09:48;101137.06;;;7.29;100.00
69257;BME280;56376;53.356;-1.748;2023-02-11T04:12:13;101124.94;;;7.31;100.00
69257;BME280;56376;53.356;-1.748;2023-02-11T04:14:39;101136.19;;;7.32;100.00
69257;BME280;56376;53.356;-1.748;2023-02-11T04:17:04;101137.94;;;7.28;100.00
69257;BME280;56376;53.356;-1.748;2023-02-11T04:19:30;101147.44;;;7.25;100.00
69257;BME280;56376;53.356;-1.748;2023-02-11T04:21:56;101148.31;;;7.27;100.00
69257;BME280;56376;53.356;-1.748;2023-02-11T04:24:22;101148.28;;;7.22;100.00
69257;BME280;56376;53.356;-1.748;2023-02-11T04:26:47;101156.97;;;7.21;100.00
69257;BME280;56376;53.356;-1.748;2023-02-11T04:29:12;101156.94;;;7.20;100.00
69257;BME280;56376;53.356;-1.748;2023-02-11T04:31:38;101158.69;;;7.22;100.00
69257;BME280;56376;53.356;-1.748;2023-02-11T04:34:03;101156.97;;;7.24;100.00
69257;BME280;56376;53.356;-1.748;2023-02-11T04:36:29;101160.44;;;7.22;100.00
69257;BME280;56376;53.356;-1.748;2023-02-11T04:38:54;101155.25;;;7.23;100.00
69257;BME280;56376;53.356;-1.748;2023-02-11T04:41:20;101149.16;;;7.23;100.00
69257;BME280;56376;53.356;-1.748;2023-02-11T04:43:45;101145.72;;;7.24;100.00
69257;BME280;56376;53.356;-1.748;2023-02-11T04:46:10;101161.28;;;7.19;100.00
69257;BME280;56376;53.356;-1.748;2023-02-11T04:48:36;101161.28;;;7.19;100.00
69257;BME280;56376;53.356;-1.748;2023-02-11T04:51:01;101160.44;;;7.19;100.00
69257;BME280;56376;53.356;-1.748;2023-02-11T04:53:27;101168.22;;;7.17;100.00
69257;BME280;56376;53.356;-1.748;2023-02-11T04:55:52;101178.59;;;7.20;100.00
69257;BME280;56376;53.356;-1.748;2023-02-11T04:58:18;101176.88;;;7.18;100.00
69257;BME280;56376;53.356;-1.748;2023-02-11T05:00:44;101181.22;;;7.19;100.00
69257;BME280;56376;53.356;-1.748;2023-02-11T05:03:10;101173.41;;;7.17;100.00
69257;BME280;56376;53.356;-1.748;2023-02-11T05:05:39;101182.13;;;7.28;100.00
69257;BME280;56376;53.356;-1.748;2023-02-11T05:08:06;101178.66;;;7.23;100.00
69257;BME280;56376;53.356;-1.748;2023-02-11T05:10:32;101185.56;;;7.21;100.00
69257;BME280;56376;53.356;-1.748;2023-02-11T05:12:58;101171.69;;;7.22;100.00
69257;BME280;56376;53.356;-1.748;2023-02-11T05:15:23;101179.50;;;7.24;100.00
69257;BME280;56376;53.356;-1.748;2023-02-11T05:17:49;101187.28;;;7.21;100.00
69257;BME280;56376;53.356;-1.748;2023-02-11T05:20:14;101193.34;;;7.20;100.00
69257;BME280;56376;53.356;-1.748;2023-02-11T05:22:39;101192.47;;;7.18;100.00
69257;BME280;56376;53.356;-1.748;2023-02-11T05:25:05;101197.69;;;7.22;100.00
69257;BME280;56376;53.356;-1.748;2023-02-11T05:27:31;101205.50;;;7.27;100.00
69257;BME280;56376;53.356;-1.748;2023-02-11T05:29:56;101205.53;;;7.28;100.00
69257;BME280;56376;53.356;-1.748;2023-02-11T05:32:22;101212.47;;;7.31;100.00
69257;BME280;56376;53.356;-1.748;2023-02-11T05:34:47;101215.03;;;7.29;100.00
69257;BME280;56376;53.356;-1.748;2023-02-11T05:37:12;101198.56;;;7.24;100.00
69257;BME280;56376;53.356;-1.748;2023-02-11T05:39:38;101215.03;;;7.32;100.00
69257;BME280;56376;53.356;-1.748;2023-02-11T05:42:03;101217.63;;;7.26;100.00
69257;BME280;56376;53.356;-1.748;2023-02-11T05:44:29;101214.16;;;7.27;100.00
69257;BME280;56376;53.356;-1.748;2023-02-11T05:46:54;101220.22;;;7.26;100.00
69257;BME280;56376;53.356;-1.748;2023-02-11T05:49:19;101224.56;;;7.27;100.00
69257;BME280;56376;53.356;-1.748;2023-02-11T05:51:45;101225.44;;;7.29;100.00
69257;BME280;56376;53.356;-1.748;2023-02-11T05:54:10;101215.88;;;7.22;100.00
69257;BME280;56376;53.356;-1.748;2023-02-11T05:56:36;101218.47;;;7.22;100.00
69257;BME280;56376;53.356;-1.748;2023-02-11T05:59:01;101219.34;;;7.21;100.00
69257;BME280;56376;53.356;-1.748;2023-02-11T06:01:27;101228.00;;;7.22;100.00
69257;BME280;56376;53.356;-1.748;2023-02-11T06:03:52;101237.53;;;7.24;100.00
69257;BME280;56376;53.356;-1.748;2023-02-11T06:06:17;101239.28;;;7.25;100.00
69257;BME280;56376;53.356;-1.748;2023-02-11T06:08:43;101238.44;;;7.26;100.00
69257;BME280;56376;53.356;-1.748;2023-02-11T06:11:08;101226.28;;;7.27;100.00
69257;BME280;56376;53.356;-1.748;2023-02-11T06:13:34;101241.03;;;7.28;100.00
69257;BME280;56376;53.356;-1.748;2023-02-11T06:16:01;101241.91;;;7.27;100.00
69257;BME280;56376;53.356;-1.748;2023-02-11T06:18:27;101240.16;;;7.26;100.00
69257;BME280;56376;53.356;-1.748;2023-02-11T06:20:52;101232.38;;;7.26;100.00
69257;BME280;56376;53.356;-1.748;2023-02-11T06:23:18;101238.44;;;7.26;100.00
69257;BME280;56376;53.356;-1.748;2023-02-11T06:25:43;101221.13;;;7.28;100.00
69257;BME280;56376;53.356;-1.748;2023-02-11T06:28:09;101221.94;;;7.24;100.00
69257;BME280;56376;53.356;-1.748;2023-02-11T06:30:36;101234.91;;;7.20;100.00
69257;BME280;56376;53.356;-1.748;2023-02-11T06:33:01;101247.06;;;7.19;100.00
69257;BME280;56376;53.356;-1.748;2023-02-11T06:35:27;101240.97;;;7.14;100.00
69257;BME280;56376;53.356;-1.748;2023-02-11T06:37:52;101255.69;;;7.18;100.00
69257;BME280;56376;53.356;-1.748;2023-02-11T06:40:19;101240.97;;;7.17;100.00
69257;BME280;56376;53.356;-1.748;2023-02-11T06:42:44;101248.78;;;7.17;100.00
69257;BME280;56376;53.356;-1.748;2023-02-11T06:45:10;101249.66;;;7.16;100.00
69257;BME280;56376;53.356;-1.748;2023-02-11T06:47:38;101246.16;;;7.15;100.00
69257;BME280;56376;53.356;-1.748;2023-02-11T06:50:05;101255.72;;;7.20;100.00
69257;BME280;56376;53.356;-1.748;2023-02-11T06:52:32;101254.84;;;7.18;100.00
69257;BME280;56376;53.356;-1.748;2023-02-11T06:54:58;101265.25;;;7.22;100.00
69257;BME280;56376;53.356;-1.748;2023-02-11T06:57:23;101260.06;;;7.19;100.00
69257;BME280;56376;53.356;-1.748;2023-02-11T06:59:49;101276.50;;;7.20;100.00
69257;BME280;56376;53.356;-1.748;2023-02-11T07:02:14;101257.47;;;7.24;100.00
69257;BME280;56376;53.356;-1.748;2023-02-11T07:04:39;101267.00;;;7.28;100.00
69257;BME280;56376;53.356;-1.748;2023-02-11T07:07:05;101265.25;;;7.22;100.00
69257;BME280;56376;53.356;-1.748;2023-02-11T07:09:30;101274.75;;;7.15;100.00
69257;BME280;56376;53.356;-1.748;2023-02-11T07:11:56;101280.81;;;7.14;100.00
69257;BME280;56376;53.356;-1.748;2023-02-11T07:14:21;101290.34;;;7.14;100.00
69257;BME280;56376;53.356;-1.748;2023-02-11T07:16:47;101298.13;;;7.14;100.00
69257;BME280;56376;53.356;-1.748;2023-02-11T07:19:12;101282.53;;;7.15;100.00
69257;BME280;56376;53.356;-1.748;2023-02-11T07:21:38;101286.03;;;7.16;100.00
69257;BME280;56376;53.356;-1.748;2023-02-11T07:24:07;101292.94;;;7.17;100.00
69257;BME280;56376;53.356;-1.748;2023-02-11T07:26:32;101293.00;;;7.23;100.00
69257;BME280;56376;53.356;-1.748;2023-02-11T07:28:58;101295.59;;;7.25;100.00
69257;BME280;56376;53.356;-1.748;2023-02-11T07:31:25;101293.00;;;7.25;100.00
69257;BME280;56376;53.356;-1.748;2023-02-11T07:33:52;101288.66;;;7.25;100.00
69257;BME280;56376;53.356;-1.748;2023-02-11T07:36:19;101294.72;;;7.23;100.00
69257;BME280;56376;53.356;-1.748;2023-02-11T07:38:44;101286.94;;;7.21;100.00
69257;BME280;56376;53.356;-1.748;2023-02-11T07:41:12;101301.63;;;7.16;100.00
69257;BME280;56376;53.356;-1.748;2023-02-11T07:43:38;101311.97;;;7.13;100.00
69257;BME280;56376;53.356;-1.748;2023-02-11T07:46:05;101301.56;;;7.10;100.00
69257;BME280;56376;53.356;-1.748;2023-02-11T07:48:31;101298.13;;;7.14;100.00
69257;BME280;56376;53.356;-1.748;2023-02-11T07:51:21;101292.91;;;7.09;100.00
69257;BME280;56376;53.356;-1.748;2023-02-11T07:53:47;101301.59;;;7.11;100.00
69257;BME280;56376;53.356;-1.748;2023-02-11T07:56:17;101298.13;;;7.14;100.00
69257;BME280;56376;53.356;-1.748;2023-02-11T07:58:43;101298.97;;;7.13;100.00
69257;BME280;56376;53.356;-1.748;2023-02-11T08:01:10;101285.97;;;7.10;100.00
69257;BME280;56376;53.356;-1.748;2023-02-11T08:03:37;101293.75;;;7.04;100.00
69257;BME280;56376;53.356;-1.748;2023-02-11T08:06:07;101287.69;;;7.06;100.00
69257;BME280;56376;53.356;-1.748;2023-02-11T08:08:33;101297.19;;;7.03;100.00
69257;BME280;56376;53.356;-1.748;2023-02-11T08:11:08;101306.75;;;7.07;100.00
69257;BME280;56376;53.356;-1.748;2023-02-11T08:13:35;101309.38;;;7.08;100.00
69257;BME280;56376;53.356;-1.748;2023-02-11T08:16:00;101319.75;;;7.07;100.00
69257;BME280;56376;53.356;-1.748;2023-02-11T08:18:26;101312.81;;;7.07;100.00
69257;BME280;56376;53.356;-1.748;2023-02-11T08:20:51;101323.22;;;7.10;100.00
69257;BME280;56376;53.356;-1.748;2023-02-11T08:23:16;101330.16;;;7.13;100.00
69257;BME280;56376;53.356;-1.748;2023-02-11T08:25:42;101329.31;;;7.11;100.00
69257;BME280;56376;53.356;-1.748;2023-02-11T08:28:07;101325.00;;;7.16;100.00
69257;BME280;56376;53.356;-1.748;2023-02-11T08:30:33;101319.81;;;7.18;100.00
69257;BME280;56376;53.356;-1.748;2023-02-11T08:32:59;101312.91;;;7.21;100.00
69257;BME280;56376;53.356;-1.748;2023-02-11T08:35:24;101323.34;;;7.26;100.00
69257;BME280;56376;53.356;-1.748;2023-02-11T08:37:51;101319.84;;;7.24;100.00
69257;BME280;56376;53.356;-1.748;2023-02-11T08:40:16;101319.78;;;7.14;100.00
69257;BME280;56376;53.356;-1.748;2023-02-11T08:42:42;101319.78;;;7.11;100.00
69257;BME280;56376;53.356;-1.748;2023-02-11T08:45:07;101328.41;;;7.10;100.00
69257;BME280;56376;53.356;-1.748;2023-02-11T08:47:35;101341.44;;;7.12;100.00
69257;BME280;56376;53.356;-1.748;2023-02-11T08:50:00;101348.34;;;7.10;100.00
69257;BME280;56376;53.356;-1.748;2023-02-11T08:52:26;101338.81;;;7.10;100.00
69257;BME280;56376;53.356;-1.748;2023-02-11T08:54:51;101338.84;;;7.15;100.00
69257;BME280;56376;53.356;-1.748;2023-02-11T08:57:16;101348.38;;;7.14;100.00
69257;BME280;56376;53.356;-1.748;2023-02-11T08:59:42;101345.78;;;7.14;100.00
69257;BME280;56376;53.356;-1.748;2023-02-11T09:02:11;101347.50;;;7.15;100.00
69257;BME280;56376;53.356;-1.748;2023-02-11T09:04:36;101343.22;;;7.19;100.00
69257;BME280;56376;53.356;-1.748;2023-02-11T09:07:02;101349.28;;;7.20;100.00
69257;BME280;56376;53.356;-1.748;2023-02-11T09:09:27;101353.63;;;7.22;100.00
69257;BME280;56376;53.356;-1.748;2023-02-11T09:11:53;101352.78;;;7.23;100.00
69257;BME280;56376;53.356;-1.748;2023-02-11T09:14:22;101359.72;;;7.27;100.00
69257;BME280;56376;53.356;-1.748;2023-02-11T09:16:49;101358.88;;;7.28;100.00
69257;BME280;56376;53.356;-1.748;2023-02-11T09:19:16;101355.41;;;7.29;100.00
69257;BME280;56376;53.356;-1.748;2023-02-11T09:21:41;101362.38;;;7.33;100.00
69257;BME280;56376;53.356;-1.748;2023-02-11T09:24:07;101366.69;;;7.28;100.00
69257;BME280;56376;53.356;-1.748;2023-02-11T09:26:34;101362.34;;;7.32;100.00
69257;BME280;56376;53.356;-1.748;2023-02-11T09:29:00;101370.13;;;7.30;100.00
69257;BME280;56376;53.356;-1.748;2023-02-11T09:31:28;101358.94;;;7.36;100.00
69257;BME280;56376;53.356;-1.748;2023-02-11T09:33:56;101351.97;;;7.33;100.00
69257;BME280;56376;53.356;-1.748;2023-02-11T09:36:27;101352.81;;;7.32;100.00
69257;BME280;56376;53.356;-1.748;2023-02-11T09:38:53;101339.81;;;7.32;100.00
69257;BME280;56376;53.356;-1.748;2023-02-11T09:43:49;101352.00;;;7.40;100.00
69257;BME280;56376;53.356;-1.748;2023-02-11T09:46:16;101357.19;;;7.33;100.00
69257;BME280;56376;53.356;-1.748;2023-02-11T09:48:45;101362.41;;;7.40;100.00
69257;BME280;56376;53.356;-1.748;2023-02-11T09:51:20;101355.47;;;7.40;100.00
69257;BME280;56376;53.356;-1.748;2023-02-11T09:53:50;101359.81;;;7.41;100.00
69257;BME280;56376;53.356;-1.748;2023-02-11T09:56:21;101362.44;;;7.41;100.00
69257;BME280;56376;53.356;-1.748;2023-02-11T09:58:47;101359.78;;;7.36;100.00
69257;BME280;56376;53.356;-1.748;2023-02-11T10:01:29;101354.59;;;7.40;100.00
69257;BME280;56376;53.356;-1.748;2023-02-11T10:04:13;101365.00;;;7.40;100.00
69257;BME280;56376;53.356;-1.748;2023-02-11T10:07:06;101356.34;;;7.42;100.00
69257;BME280;56376;53.356;-1.748;2023-02-11T10:09:40;101357.25;;;7.49;100.00
69257;BME280;56376;53.356;-1.748;2023-02-11T10:14:50;101353.88;;;7.65;100.00
69257;BME280;56376;53.356;-1.748;2023-02-11T10:17:40;101350.44;;;7.69;100.00
69257;BME280;56376;53.356;-1.748;2023-02-11T10:20:24;101366.91;;;7.76;100.00
69257;BME280;56376;53.356;-1.748;2023-02-11T10:22:57;101363.47;;;7.80;100.00
69257;BME280;56376;53.356;-1.748;2023-02-11T10:25:40;101357.44;;;7.87;100.00
69257;BME280;56376;53.356;-1.748;2023-02-11T10:31:02;101349.72;;;8.15;100.00
69257;BME280;56376;53.356;-1.748;2023-02-11T10:36:14;101319.44;;;8.55;100.00
69257;BME280;56376;53.356;-1.748;2023-02-11T10:38:40;101322.06;;;8.71;100.00
69257;BME280;56376;53.356;-1.748;2023-02-11T10:41:10;101322.06;;;8.84;100.00
69257;BME280;56376;53.356;-1.748;2023-02-11T10:43:40;101322.91;;;8.99;100.00
69257;BME280;56376;53.356;-1.748;2023-02-11T10:46:24;101337.66;;;9.10;100.00
69257;BME280;56376;53.356;-1.748;2023-02-11T10:48:53;101361.09;;;9.21;100.00
69257;BME280;56376;53.356;-1.748;2023-02-11T10:53:46;101360.19;;;9.39;100.00
69257;BME280;56376;53.356;-1.748;2023-02-11T10:56:25;101354.97;;;9.53;100.00
69257;BME280;56376;53.356;-1.748;2023-02-11T11:01:49;101361.00;;;9.69;100.00
69257;BME280;56376;53.356;-1.748;2023-02-11T11:06:47;101322.69;;;9.75;98.84
69257;BME280;56376;53.356;-1.748;2023-02-11T11:09:29;101314.00;;;9.73;98.59
69257;BME280;56376;53.356;-1.748;2023-02-11T11:11:55;101323.59;;;9.64;99.03
69257;BME280;56376;53.356;-1.748;2023-02-11T11:14:22;101338.44;;;9.52;100.00
69257;BME280;56376;53.356;-1.748;2023-02-11T11:16:54;101329.72;;;9.47;99.31
69257;BME280;56376;53.356;-1.748;2023-02-11T11:19:22;101331.50;;;9.39;100.00
69257;BME280;56376;53.356;-1.748;2023-02-11T11:21:52;101335.84;;;9.43;100.00
69257;BME280;56376;53.356;-1.748;2023-02-11T11:24:38;101326.25;;;9.56;99.69
69257;BME280;56376;53.356;-1.748;2023-02-11T11:27:05;101323.63;;;9.61;100.00
69257;BME280;56376;53.356;-1.748;2023-02-11T11:29:37;101313.13;;;9.71;99.79
69257;BME280;56376;53.356;-1.748;2023-02-11T11:32:28;101313.09;;;9.82;98.85
69257;BME280;56376;53.356;-1.748;2023-02-11T11:35:01;101331.38;;;9.81;100.00
69257;BME280;56376;53.356;-1.748;2023-02-11T11:37:29;101318.31;;;9.84;98.94
69257;BME280;56376;53.356;-1.748;2023-02-11T11:42:40;101306.09;;;9.87;96.86
69257;BME280;56376;53.356;-1.748;2023-02-11T11:47:46;101319.13;;;9.93;97.26
69257;BME280;56376;53.356;-1.748;2023-02-11T11:50:25;101323.50;;;9.93;96.35
69257;BME280;56376;53.356;-1.748;2023-02-11T11:58:03;101292.22;;;9.85;93.24
69257;BME280;56376;53.356;-1.748;2023-02-11T12:00:36;101270.50;;;9.74;94.60
69257;BME280;56376;53.356;-1.748;2023-02-11T12:03:31;101269.69;;;9.60;93.83
69257;BME280;56376;53.356;-1.748;2023-02-11T12:06:13;101280.16;;;9.57;96.09
69257;BME280;56376;53.356;-1.748;2023-02-11T12:08:59;101292.38;;;9.48;96.44
69257;BME280;56376;53.356;-1.748;2023-02-11T12:20:18;101299.34;;;9.43;97.89
69257;BME280;56376;53.356;-1.748;2023-02-11T12:23:03;101291.47;;;9.49;96.98
69257;BME280;56376;53.356;-1.748;2023-02-11T12:26:04;101281.03;;;9.59;90.83
69257;BME280;56376;53.356;-1.748;2023-02-11T12:28:37;101294.91;;;9.65;92.68
69257;BME280;56376;53.356;-1.748;2023-02-11T12:31:26;101290.50;;;9.72;94.66
69257;BME280;56376;53.356;-1.748;2023-02-11T12:34:06;101282.66;;;9.80;94.33
69257;BME280;56376;53.356;-1.748;2023-02-11T12:36:56;101281.75;;;9.88;91.84
69257;BME280;56376;53.356;-1.748;2023-02-11T12:44:46;101295.47;;;10.19;92.54
69257;BME280;56376;53.356;-1.748;2023-02-11T12:47:32;101301.53;;;10.28;91.33
69257;BME280;56376;53.356;-1.748;2023-02-11T12:55:15;101296.13;;;10.54;89.06
69257;BME280;56376;53.356;-1.748;2023-02-11T12:57:45;101307.41;;;10.59;87.86
69257;BME280;56376;53.356;-1.748;2023-02-11T13:00:22;101298.69;;;10.60;89.55
69257;BME280;56376;53.356;-1.748;2023-02-11T13:03:06;101303.88;;;10.65;88.98
69257;BME280;56376;53.356;-1.748;2023-02-11T13:05:39;101310.81;;;10.66;87.57
69257;BME280;56376;53.356;-1.748;2023-02-11T13:10:37;101309.19;;;10.54;89.64
69257;BME280;56376;53.356;-1.748;2023-02-11T13:13:30;101312.75;;;10.48;89.39
69257;BME280;56376;53.356;-1.748;2023-02-11T13:16:02;101304.09;;;10.37;90.31
69257;BME280;56376;53.356;-1.748;2023-02-11T13:24:24;101300.63;;;10.27;91.94
69257;BME280;56376;53.356;-1.748;2023-02-11T13:30:12;101291.97;;;10.28;93.69
69257;BME280;56376;53.356;-1.748;2023-02-11T13:35:40;101297.16;;;10.36;88.39
69257;BME280;56376;53.356;-1.748;2023-02-11T13:38:18;101295.41;;;10.35;88.92
69257;BME280;56376;53.356;-1.748;2023-02-11T13:41:03;101292.81;;;10.32;89.87
69257;BME280;56376;53.356;-1.748;2023-02-11T13:43:32;101291.94;;;10.31;90.13
69257;BME280;56376;53.356;-1.748;2023-02-11T13:46:04;101298.00;;;10.36;89.38
69257;BME280;56376;53.356;-1.748;2023-02-11T13:51:01;101309.28;;;10.40;90.60
69257;BME280;56376;53.356;-1.748;2023-02-11T13:53:28;101301.53;;;10.31;90.02
69257;BME280;56376;53.356;-1.748;2023-02-11T13:58:51;101310.25;;;10.22;89.06
69257;BME280;56376;53.356;-1.748;2023-02-11T14:02:00;101324.22;;;10.18;88.44
69257;BME280;56376;53.356;-1.748;2023-02-11T14:05:18;101321.63;;;10.13;90.80
69257;BME280;56376;53.356;-1.748;2023-02-11T14:16:19;101322.50;;;10.12;89.35
69257;BME280;56376;53.356;-1.748;2023-02-11T14:21:38;101330.34;;;10.15;89.26
69257;BME280;56376;53.356;-1.748;2023-02-11T14:29:33;101335.50;;;10.20;88.12
69257;BME280;56376;53.356;-1.748;2023-02-11T14:32:05;101331.19;;;10.14;88.72
69257;BME280;56376;53.356;-1.748;2023-02-11T14:42:58;101354.78;;;9.97;88.55
69257;BME280;56376;53.356;-1.748;2023-02-11T14:45:27;101344.38;;;9.93;89.81
69257;BME280;56376;53.356;-1.748;2023-02-11T14:48:04;101357.38;;;10.01;87.64
69257;BME280;56376;53.356;-1.748;2023-02-11T14:50:39;101357.38;;;9.97;88.10